sensor_id;sensor_type;location;lat;lon;timestamp;pressure;altitude;pressure_sealevel;temperature;humidity
80124;BME280;69433;48.642;9.142;2024-01-30T00:02:30;98274.41;;;22.19;31.87
80124;BME280;69433;48.642;9.142;2024-01-30T00:04:55;98274.41;;;22.19;31.94
80124;BME280;69433;48.642;9.142;2024-01-30T00:07:21;98274.00;;;22.17;31.78
80124;BME280;69433;48.642;9.142;2024-01-30T00:09:48;98268.59;;;22.14;31.84
80124;BME280;69433;48.642;9.142;2024-01-30T00:12:18;98272.44;;;22.16;31.84
80124;BME280;69433;48.642;9.142;2024-01-30T00:14:45;98268.22;;;22.15;31.69
80124;BME280;69433;48.642;9.142;2024-01-30T00:17:18;98278.16;;;22.15;31.84
80124;BME280;69433;48.642;9.142;2024-01-30T00:19:45;98276.25;;;22.15;31.84
80124;BME280;69433;48.642;9.142;2024-01-30T00:22:27;98275.09;;;22.13;31.70
80124;BME280;69433;48.642;9.142;2024-01-30T00:25:02;98274.31;;;22.12;31.86
80124;BME280;69433;48.642;9.142;2024-01-30T00:27:29;98270.47;;;22.10;31.79
80124;BME280;69433;48.642;9.142;2024-01-30T00:29:56;98271.97;;;22.07;31.79
80124;BME280;69433;48.642;9.142;2024-01-30T00:32:22;98271.22;;;22.07;31.86
80124;BME280;69433;48.642;9.142;2024-01-30T00:34:49;98271.97;;;22.07;31.86
80124;BME280;69433;48.642;9.142;2024-01-30T00:37:14;98271.22;;;22.07;31.83
80124;BME280;69433;48.642;9.142;2024-01-30T00:39:40;98268.91;;;22.05;31.89
80124;BME280;69433;48.642;9.142;2024-01-30T00:42:05;98270.44;;;22.06;31.79
80124;BME280;69433;48.642;9.142;2024-01-30T00:44:30;98267.34;;;22.04;31.83
80124;BME280;69433;48.642;9.142;2024-01-30T00:46:56;98270.03;;;22.04;31.98
80124;BME280;69433;48.642;9.142;2024-01-30T00:49:27;98271.16;;;22.03;32.08
80124;BME280;69433;48.642;9.142;2024-01-30T00:51:52;98275.72;;;21.99;31.80
80124;BME280;69433;48.642;9.142;2024-01-30T00:54:18;98270.38;;;21.99;32.00
80124;BME280;69433;48.642;9.142;2024-01-30T00:56:54;98279.53;;;21.98;31.97
80124;BME280;69433;48.642;9.142;2024-01-30T00:59:20;98274.22;;;22.02;31.90
80124;BME280;69433;48.642;9.142;2024-01-30T01:01:45;98270.75;;;22.01;31.89
80124;BME280;69433;48.642;9.142;2024-01-30T01:04:14;98270.41;;;22.03;31.78
80124;BME280;69433;48.642;9.142;2024-01-30T01:06:40;98267.72;;;22.03;31.71
80124;BME280;69433;48.642;9.142;2024-01-30T01:09:07;98271.56;;;22.05;31.70
80124;BME280;69433;48.642;9.142;2024-01-30T01:11:33;98263.53;;;22.05;31.62
80124;BME280;69433;48.642;9.142;2024-01-30T01:13:59;98269.66;;;22.06;31.74
80124;BME280;69433;48.642;9.142;2024-01-30T01:16:27;98275.38;;;22.04;31.61
80124;BME280;69433;48.642;9.142;2024-01-30T01:18:53;98270.81;;;22.05;31.61
80124;BME280;69433;48.642;9.142;2024-01-30T01:21:29;98266.59;;;22.04;31.56
80124;BME280;69433;48.642;9.142;2024-01-30T01:24:01;98267.34;;;22.04;31.54
80124;BME280;69433;48.642;9.142;2024-01-30T01:26:29;98268.84;;;22.02;31.56
80124;BME280;69433;48.642;9.142;2024-01-30T01:29:01;98265.03;;;21.99;31.77
80124;BME280;69433;48.642;9.142;2024-01-30T01:31:40;98266.56;;;22.00;31.57
80124;BME280;69433;48.642;9.142;2024-01-30T01:34:12;98265.72;;;21.96;31.73
80124;BME280;69433;48.642;9.142;2024-01-30T01:36:46;98271.50;;;21.98;31.52
80124;BME280;69433;48.642;9.142;2024-01-30T01:39:12;98266.50;;;21.97;31.52
80124;BME280;69433;48.642;9.142;2024-01-30T01:41:37;98269.59;;;21.99;31.70
80124;BME280;69433;48.642;9.142;2024-01-30T01:44:02;98266.50;;;21.97;31.49
80124;BME280;69433;48.642;9.142;2024-01-30T01:46:30;98265.72;;;21.96;31.57
80124;BME280;69433;48.642;9.142;2024-01-30T01:48:56;98264.19;;;21.95;31.57
80124;BME280;69433;48.642;9.142;2024-01-30T01:51:23;98268.00;;;21.94;31.62
80124;BME280;69433;48.642;9.142;2024-01-30T01:54:00;98264.53;;;21.94;31.68
80124;BME280;69433;48.642;9.142;2024-01-30T01:56:27;98268.75;;;21.91;31.63
80124;BME280;69433;48.642;9.142;2024-01-30T01:58:55;98269.88;;;21.90;31.44
80124;BME280;69433;48.642;9.142;2024-01-30T02:01:28;98271.41;;;21.91;31.58
80124;BME280;69433;48.642;9.142;2024-01-30T02:03:55;98263.38;;;21.91;31.58
80124;BME280;69433;48.642;9.142;2024-01-30T02:06:20;98261.06;;;21.90;31.50
80124;BME280;69433;48.642;9.142;2024-01-30T02:08:55;98269.47;;;21.88;31.62
80124;BME280;69433;48.642;9.142;2024-01-30T02:11:30;98261.75;;;21.83;31.69
80124;BME280;69433;48.642;9.142;2024-01-30T02:13:55;98268.25;;;21.82;31.65
80124;BME280;69433;48.642;9.142;2024-01-30T02:16:21;98270.53;;;21.80;31.60
80124;BME280;69433;48.642;9.142;2024-01-30T02:18:46;98269.41;;;21.81;31.63
80124;BME280;69433;48.642;9.142;2024-01-30T02:21:16;98265.91;;;21.77;31.58
80124;BME280;69433;48.642;9.142;2024-01-30T02:23:43;98270.06;;;21.74;31.79
80124;BME280;69433;48.642;9.142;2024-01-30T02:26:08;98269.31;;;21.74;31.80
80124;BME280;69433;48.642;9.142;2024-01-30T02:28:34;98268.16;;;21.75;31.69
80124;BME280;69433;48.642;9.142;2024-01-30T02:31:00;98274.66;;;21.74;31.57
80124;BME280;69433;48.642;9.142;2024-01-30T02:33:27;98275.41;;;21.71;31.80
80124;BME280;69433;48.642;9.142;2024-01-30T02:35:52;98272.31;;;21.69;31.75
80124;BME280;69433;48.642;9.142;2024-01-30T02:38:17;98273.88;;;21.70;31.78
80124;BME280;69433;48.642;9.142;2024-01-30T02:40:49;98273.03;;;21.66;31.80
80124;BME280;69433;48.642;9.142;2024-01-30T02:43:15;98270.38;;;21.66;31.59
80124;BME280;69433;48.642;9.142;2024-01-30T02:45:41;98269.59;;;21.65;31.83
80124;BME280;69433;48.642;9.142;2024-01-30T02:48:06;98273.03;;;21.66;31.61
80124;BME280;69433;48.642;9.142;2024-01-30T02:50:44;98264.59;;;21.64;31.85
80124;BME280;69433;48.642;9.142;2024-01-30T02:53:09;98266.16;;;21.65;31.79
80124;BME280;69433;48.642;9.142;2024-01-30T02:55:38;98263.13;;;21.66;31.67
80124;BME280;69433;48.642;9.142;2024-01-30T02:58:03;98262.38;;;21.69;31.68
80124;BME280;69433;48.642;9.142;2024-01-30T03:00:37;98259.34;;;21.71;31.75
80124;BME280;69433;48.642;9.142;2024-01-30T03:03:03;98260.16;;;21.75;31.58
80124;BME280;69433;48.642;9.142;2024-01-30T03:05:38;98262.47;;;21.76;31.45
80124;BME280;69433;48.642;9.142;2024-01-30T03:08:04;98262.81;;;21.75;31.69
80124;BME280;69433;48.642;9.142;2024-01-30T03:10:29;98260.16;;;21.75;31.54
80124;BME280;69433;48.642;9.142;2024-01-30T03:13:04;98257.47;;;21.75;31.57
80124;BME280;69433;48.642;9.142;2024-01-30T03:15:29;98254.78;;;21.75;31.59
80124;BME280;69433;48.642;9.142;2024-01-30T03:17:54;98257.09;;;21.76;31.38
80124;BME280;69433;48.642;9.142;2024-01-30T03:20:20;98259.78;;;21.76;31.44
80124;BME280;69433;48.642;9.142;2024-01-30T03:22:47;98260.16;;;21.75;31.51
80124;BME280;69433;48.642;9.142;2024-01-30T03:25:12;98266.63;;;21.74;31.47
80124;BME280;69433;48.642;9.142;2024-01-30T03:27:38;98265.50;;;21.75;31.50
80124;BME280;69433;48.642;9.142;2024-01-30T03:30:08;98260.91;;;21.72;31.51
80124;BME280;69433;48.642;9.142;2024-01-30T03:32:34;98263.56;;;21.72;31.41
80124;BME280;69433;48.642;9.142;2024-01-30T03:34:59;98267.75;;;21.73;31.50
80124;BME280;69433;48.642;9.142;2024-01-30T03:37:28;98262.38;;;21.69;31.43
80124;BME280;69433;48.642;9.142;2024-01-30T03:40:04;98265.84;;;21.70;31.42
80124;BME280;69433;48.642;9.142;2024-01-30T03:42:31;98262.75;;;21.68;31.54
80124;BME280;69433;48.642;9.142;2024-01-30T03:45:14;98260.84;;;21.68;31.34
80124;BME280;69433;48.642;9.142;2024-01-30T03:47:39;98266.97;;;21.69;31.40
80124;BME280;69433;48.642;9.142;2024-01-30T03:50:05;98264.66;;;21.67;31.49
80124;BME280;69433;48.642;9.142;2024-01-30T03:52:30;98267.69;;;21.66;31.58
80124;BME280;69433;48.642;9.142;2024-01-30T03:55:10;98268.47;;;21.66;31.55
80124;BME280;69433;48.642;9.142;2024-01-30T03:57:38;98260.00;;;21.61;31.53
80124;BME280;69433;48.642;9.142;2024-01-30T04:00:23;98267.66;;;21.62;31.65
80124;BME280;69433;48.642;9.142;2024-01-30T04:02:51;98264.59;;;21.64;31.64
80124;BME280;69433;48.642;9.142;2024-01-30T04:05:18;98263.81;;;21.60;31.66
80124;BME280;69433;48.642;9.142;2024-01-30T04:07:51;98272.25;;;21.62;31.74
80124;BME280;69433;48.642;9.142;2024-01-30T04:10:17;98257.13;;;21.43;31.63
80124;BME280;69433;48.642;9.142;2024-01-30T04:12:44;98265.81;;;21.36;31.77
80124;BME280;69433;48.642;9.142;2024-01-30T04:15:12;98258.63;;;21.40;31.10
80124;BME280;69433;48.642;9.142;2024-01-30T04:17:41;98254.47;;;21.46;31.10
80124;BME280;69433;48.642;9.142;2024-01-30T04:20:07;98251.09;;;21.53;30.69
80124;BME280;69433;48.642;9.142;2024-01-30T04:22:34;98250.84;;;21.62;30.28
80124;BME280;69433;48.642;9.142;2024-01-30T04:25:06;98254.72;;;21.68;30.40
80124;BME280;69433;48.642;9.142;2024-01-30T04:27:37;98252.09;;;21.71;29.92
80124;BME280;69433;48.642;9.142;2024-01-30T04:30:05;98262.16;;;21.85;29.96
80124;BME280;69433;48.642;9.142;2024-01-30T04:32:32;98252.41;;;22.00;29.98
80124;BME280;69433;48.642;9.142;2024-01-30T04:35:10;98262.09;;;22.15;29.86
80124;BME280;69433;48.642;9.142;2024-01-30T04:37:38;98259.88;;;22.24;29.82
80124;BME280;69433;48.642;9.142;2024-01-30T04:40:11;98264.56;;;22.34;29.83
80124;BME280;69433;48.642;9.142;2024-01-30T04:42:43;98260.44;;;22.44;29.74
80124;BME280;69433;48.642;9.142;2024-01-30T04:45:08;98257.78;;;22.51;29.67
80124;BME280;69433;48.642;9.142;2024-01-30T04:47:35;98257.88;;;22.58;29.71
80124;BME280;69433;48.642;9.142;2024-01-30T04:50:07;98263.28;;;22.65;29.73
80124;BME280;69433;48.642;9.142;2024-01-30T04:52:43;98269.44;;;22.73;29.64
80124;BME280;69433;48.642;9.142;2024-01-30T04:55:15;98267.97;;;22.79;29.55
80124;BME280;69433;48.642;9.142;2024-01-30T04:57:52;98273.78;;;22.84;29.60
80124;BME280;69433;48.642;9.142;2024-01-30T05:00:17;98258.84;;;22.90;29.62
80124;BME280;69433;48.642;9.142;2024-01-30T05:02:43;98273.47;;;22.97;29.68
80124;BME280;69433;48.642;9.142;2024-01-30T05:05:17;98271.94;;;22.99;29.40
80124;BME280;69433;48.642;9.142;2024-01-30T05:07:42;98280.78;;;23.03;29.60
80124;BME280;69433;48.642;9.142;2024-01-30T05:10:27;98283.09;;;23.08;29.48
80124;BME280;69433;48.642;9.142;2024-01-30T05:12:55;98277.75;;;23.12;29.64
80124;BME280;69433;48.642;9.142;2024-01-30T05:15:20;98278.16;;;23.14;29.41
80124;BME280;69433;48.642;9.142;2024-01-30T05:17:46;98281.97;;;23.13;29.61
80124;BME280;69433;48.642;9.142;2024-01-30T05:20:11;98283.84;;;23.09;29.40
80124;BME280;69433;48.642;9.142;2024-01-30T05:22:38;98278.50;;;23.05;29.38
80124;BME280;69433;48.642;9.142;2024-01-30T05:25:09;98277.69;;;23.01;29.54
80124;BME280;69433;48.642;9.142;2024-01-30T05:27:36;98279.19;;;22.99;29.68
80124;BME280;69433;48.642;9.142;2024-01-30T05:30:02;98277.28;;;22.96;29.85
80124;BME280;69433;48.642;9.142;2024-01-30T05:32:28;98276.88;;;22.93;29.84
80124;BME280;69433;48.642;9.142;2024-01-30T05:34:53;98279.56;;;22.93;29.83
80124;BME280;69433;48.642;9.142;2024-01-30T05:37:18;98279.56;;;22.93;29.97
80124;BME280;69433;48.642;9.142;2024-01-30T05:39:50;98276.13;;;22.93;30.03
80124;BME280;69433;48.642;9.142;2024-01-30T05:42:18;98281.47;;;22.93;30.11
80124;BME280;69433;48.642;9.142;2024-01-30T05:44:45;98283.41;;;22.92;30.00
80124;BME280;69433;48.642;9.142;2024-01-30T05:47:17;98287.63;;;22.93;29.98
80124;BME280;69433;48.642;9.142;2024-01-30T05:49:42;98286.84;;;22.93;30.03
80124;BME280;69433;48.642;9.142;2024-01-30T05:52:07;98289.53;;;22.93;30.11
80124;BME280;69433;48.642;9.142;2024-01-30T05:54:33;98281.09;;;22.94;30.19
80124;BME280;69433;48.642;9.142;2024-01-30T05:56:58;98287.63;;;22.93;30.08
80124;BME280;69433;48.642;9.142;2024-01-30T05:59:26;98289.16;;;22.94;30.09
80124;BME280;69433;48.642;9.142;2024-01-30T06:01:53;98292.25;;;22.97;30.09
80124;BME280;69433;48.642;9.142;2024-01-30T06:04:19;98271.16;;;22.95;30.01
80124;BME280;69433;48.642;9.142;2024-01-30T06:06:44;98282.59;;;22.85;30.02
80124;BME280;69433;48.642;9.142;2024-01-30T06:09:09;98289.72;;;22.70;30.05
80124;BME280;69433;48.642;9.142;2024-01-30T06:11:39;98291.63;;;22.66;30.16
80124;BME280;69433;48.642;9.142;2024-01-30T06:14:09;98289.25;;;22.61;30.18
80124;BME280;69433;48.642;9.142;2024-01-30T06:16:48;98294.63;;;22.57;30.38
80124;BME280;69433;48.642;9.142;2024-01-30T06:19:16;98289.19;;;22.50;30.30
80124;BME280;69433;48.642;9.142;2024-01-30T06:21:41;98289.91;;;22.44;30.19
80124;BME280;69433;48.642;9.142;2024-01-30T06:24:08;98290.63;;;22.37;30.58
80124;BME280;69433;48.642;9.142;2024-01-30T06:26:36;98297.06;;;22.29;30.82
80124;BME280;69433;48.642;9.142;2024-01-30T06:29:01;98298.16;;;22.25;30.70
80124;BME280;69433;48.642;9.142;2024-01-30T06:31:43;98303.88;;;22.19;30.91
80124;BME280;69433;48.642;9.142;2024-01-30T06:34:09;98295.00;;;22.15;30.86
80124;BME280;69433;48.642;9.142;2024-01-30T06:36:35;98293.03;;;22.09;30.89
80124;BME280;69433;48.642;9.142;2024-01-30T06:39:01;98296.44;;;22.06;31.03
80124;BME280;69433;48.642;9.142;2024-01-30T06:41:32;98287.22;;;22.00;31.17
80124;BME280;69433;48.642;9.142;2024-01-30T06:44:02;98290.16;;;21.91;31.31
80124;BME280;69433;48.642;9.142;2024-01-30T06:46:28;98293.94;;;21.87;31.47
80124;BME280;69433;48.642;9.142;2024-01-30T06:48:55;98299.63;;;21.81;31.43
80124;BME280;69433;48.642;9.142;2024-01-30T06:51:23;98298.03;;;21.77;31.58
80124;BME280;69433;48.642;9.142;2024-01-30T06:53:48;98290.72;;;21.74;31.55
80124;BME280;69433;48.642;9.142;2024-01-30T06:56:23;98296.06;;;21.74;31.51
80124;BME280;69433;48.642;9.142;2024-01-30T06:58:48;98296.06;;;21.74;31.71
80124;BME280;69433;48.642;9.142;2024-01-30T07:01:14;98297.59;;;21.71;31.80
80124;BME280;69433;48.642;9.142;2024-01-30T07:03:42;98297.13;;;21.66;31.78
80124;BME280;69433;48.642;9.142;2024-01-30T07:06:08;98299.41;;;21.64;31.71
80124;BME280;69433;48.642;9.142;2024-01-30T07:08:33;98304.31;;;21.58;31.88
80124;BME280;69433;48.642;9.142;2024-01-30T07:11:01;98309.63;;;21.55;31.96
80124;BME280;69433;48.642;9.142;2024-01-30T07:13:38;98310.34;;;21.52;32.14
80124;BME280;69433;48.642;9.142;2024-01-30T07:16:04;98312.66;;;21.53;32.02
80124;BME280;69433;48.642;9.142;2024-01-30T07:18:29;98319.53;;;21.51;32.28
80124;BME280;69433;48.642;9.142;2024-01-30T07:20:56;98322.56;;;21.49;32.02
80124;BME280;69433;48.642;9.142;2024-01-30T07:23:21;98325.16;;;21.45;32.37
80124;BME280;69433;48.642;9.142;2024-01-30T07:25:46;98322.91;;;21.47;32.25
80124;BME280;69433;48.642;9.142;2024-01-30T07:28:21;98317.91;;;21.46;32.49
80124;BME280;69433;48.642;9.142;2024-01-30T07:30:49;98317.56;;;21.47;32.48
80124;BME280;69433;48.642;9.142;2024-01-30T07:33:15;98319.09;;;21.48;32.35
80124;BME280;69433;48.642;9.142;2024-01-30T07:35:40;98319.53;;;21.51;32.42
80124;BME280;69433;48.642;9.142;2024-01-30T07:38:06;98320.28;;;21.51;32.54
80124;BME280;69433;48.642;9.142;2024-01-30T07:40:37;98317.25;;;21.53;32.20
80124;BME280;69433;48.642;9.142;2024-01-30T07:43:03;98324.50;;;21.52;32.39
80124;BME280;69433;48.642;9.142;2024-01-30T07:45:37;98308.06;;;21.54;32.57
80124;BME280;69433;48.642;9.142;2024-01-30T07:48:05;98313.84;;;21.56;32.40
80124;BME280;69433;48.642;9.142;2024-01-30T07:50:40;98319.53;;;21.54;32.63
80124;BME280;69433;48.642;9.142;2024-01-30T07:53:08;98318.81;;;21.57;32.43
80124;BME280;69433;48.642;9.142;2024-01-30T07:55:34;98321.84;;;21.56;32.77
80124;BME280;69433;48.642;9.142;2024-01-30T07:57:59;98326.78;;;21.50;32.54
80124;BME280;69433;48.642;9.142;2024-01-30T08:00:39;98325.78;;;21.62;32.73
80124;BME280;69433;48.642;9.142;2024-01-30T08:03:05;98322.81;;;21.70;32.55
80124;BME280;69433;48.642;9.142;2024-01-30T08:05:30;98319.84;;;21.79;32.25
80124;BME280;69433;48.642;9.142;2024-01-30T08:07:55;98319.09;;;21.82;32.22
80124;BME280;69433;48.642;9.142;2024-01-30T08:10:21;98317.25;;;21.86;32.19
80124;BME280;69433;48.642;9.142;2024-01-30T08:12:46;98320.75;;;21.90;32.15
80124;BME280;69433;48.642;9.142;2024-01-30T08:15:18;98325.41;;;21.97;31.79
80124;BME280;69433;48.642;9.142;2024-01-30T08:17:51;98330.91;;;22.11;31.71
80124;BME280;69433;48.642;9.142;2024-01-30T08:20:22;98327.22;;;22.23;31.66
80124;BME280;69433;48.642;9.142;2024-01-30T08:22:50;98324.31;;;22.38;31.53
80124;BME280;69433;48.642;9.142;2024-01-30T08:25:21;98316.78;;;22.54;31.25
80124;BME280;69433;48.642;9.142;2024-01-30T08:27:46;98318.06;;;22.68;31.03
80124;BME280;69433;48.642;9.142;2024-01-30T08:30:12;98315.09;;;22.80;30.77
80124;BME280;69433;48.642;9.142;2024-01-30T08:32:49;98317.13;;;22.93;30.72
80124;BME280;69433;48.642;9.142;2024-01-30T08:35:40;98317.19;;;23.08;30.47
80124;BME280;69433;48.642;9.142;2024-01-30T08:38:05;98316.47;;;23.18;30.10
80124;BME280;69433;48.642;9.142;2024-01-30T08:40:31;98315.78;;;23.28;30.38
80124;BME280;69433;48.642;9.142;2024-01-30T08:43:27;98317.75;;;23.38;29.84
80124;BME280;69433;48.642;9.142;2024-01-30T08:45:55;98314.34;;;23.48;29.97
80124;BME280;69433;48.642;9.142;2024-01-30T08:48:28;98315.94;;;23.56;29.59
80124;BME280;69433;48.642;9.142;2024-01-30T08:51:20;98320.59;;;23.63;29.48
80124;BME280;69433;48.642;9.142;2024-01-30T08:53:56;98320.59;;;23.66;29.68
80124;BME280;69433;48.642;9.142;2024-01-30T08:56:30;98322.16;;;23.71;29.52
80124;BME280;69433;48.642;9.142;2024-01-30T08:58:55;98324.47;;;23.80;29.38
80124;BME280;69433;48.642;9.142;2024-01-30T09:01:33;98327.91;;;23.84;29.45
80124;BME280;69433;48.642;9.142;2024-01-30T09:03:58;98324.09;;;23.85;29.22
80124;BME280;69433;48.642;9.142;2024-01-30T09:06:36;98325.25;;;23.87;29.08
80124;BME280;69433;48.642;9.142;2024-01-30T09:09:04;98326.44;;;23.90;29.21
80124;BME280;69433;48.642;9.142;2024-01-30T09:11:43;98331.03;;;23.93;29.22
80124;BME280;69433;48.642;9.142;2024-01-30T09:14:09;98327.59;;;23.96;29.41
80124;BME280;69433;48.642;9.142;2024-01-30T09:16:34;98331.06;;;24.00;29.14
80124;BME280;69433;48.642;9.142;2024-01-30T09:19:34;98324.16;;;24.02;28.84
80124;BME280;69433;48.642;9.142;2024-01-30T09:22:14;98339.09;;;24.03;29.00
80124;BME280;69433;48.642;9.142;2024-01-30T09:24:40;98334.53;;;24.08;28.92
80124;BME280;69433;48.642;9.142;2024-01-30T09:27:19;98336.81;;;24.13;29.00
80124;BME280;69433;48.642;9.142;2024-01-30T09:30:16;98338.38;;;24.17;28.64
80124;BME280;69433;48.642;9.142;2024-01-30T09:32:42;98341.47;;;24.19;28.71
80124;BME280;69433;48.642;9.142;2024-01-30T09:35:16;98336.09;;;24.19;28.70
80124;BME280;69433;48.642;9.142;2024-01-30T09:37:52;98342.22;;;24.16;28.74
80124;BME280;69433;48.642;9.142;2024-01-30T09:40:18;98337.22;;;24.11;28.71
80124;BME280;69433;48.642;9.142;2024-01-30T09:42:47;98331.81;;;24.04;28.86
80124;BME280;69433;48.642;9.142;2024-01-30T09:45:29;98341.41;;;23.98;29.13
80124;BME280;69433;48.642;9.142;2024-01-30T09:48:02;98341.38;;;23.94;28.95
80124;BME280;69433;48.642;9.142;2024-01-30T09:50:37;98344.84;;;23.91;29.24
80124;BME280;69433;48.642;9.142;2024-01-30T09:53:13;98345.59;;;23.88;28.98
80124;BME280;69433;48.642;9.142;2024-01-30T09:55:53;98335.97;;;23.84;28.94
80124;BME280;69433;48.642;9.142;2024-01-30T09:58:32;98340.22;;;23.85;28.92
80124;BME280;69433;48.642;9.142;2024-01-30T10:01:18;98340.59;;;23.80;29.14
80124;BME280;69433;48.642;9.142;2024-01-30T10:03:44;98342.47;;;23.76;29.41
80124;BME280;69433;48.642;9.142;2024-01-30T10:06:10;98339.78;;;23.68;29.41
80124;BME280;69433;48.642;9.142;2024-01-30T10:08:45;98345.13;;;23.65;29.41
80124;BME280;69433;48.642;9.142;2024-01-30T10:11:10;98350.09;;;23.59;29.27
80124;BME280;69433;48.642;9.142;2024-01-30T10:13:35;98350.06;;;23.56;29.49
80124;BME280;69433;48.642;9.142;2024-01-30T10:16:01;98346.25;;;23.53;29.75
80124;BME280;69433;48.642;9.142;2024-01-30T10:18:28;98343.53;;;23.50;29.52
80124;BME280;69433;48.642;9.142;2024-01-30T10:20:54;98349.59;;;23.47;29.49
80124;BME280;69433;48.642;9.142;2024-01-30T10:23:26;98344.97;;;23.40;29.74
80124;BME280;69433;48.642;9.142;2024-01-30T10:25:58;98342.66;;;23.35;29.97
80124;BME280;69433;48.642;9.142;2024-01-30T10:28:27;98331.91;;;23.31;29.91
80124;BME280;69433;48.642;9.142;2024-01-30T10:31:06;98341.84;;;23.24;29.88
80124;BME280;69433;48.642;9.142;2024-01-30T10:33:38;98337.97;;;23.21;30.15
80124;BME280;69433;48.642;9.142;2024-01-30T10:36:04;98348.69;;;23.14;30.32
80124;BME280;69433;48.642;9.142;2024-01-30T10:38:34;98333.72;;;23.13;30.37
80124;BME280;69433;48.642;9.142;2024-01-30T10:41:00;98333.34;;;23.15;30.28
80124;BME280;69433;48.642;9.142;2024-01-30T10:43:47;98327.59;;;23.13;30.33
80124;BME280;69433;48.642;9.142;2024-01-30T10:46:18;98326.41;;;23.10;30.33
80124;BME280;69433;48.642;9.142;2024-01-30T10:48:46;98331.38;;;23.08;30.28
80124;BME280;69433;48.642;9.142;2024-01-30T10:51:24;98329.09;;;23.07;30.47
80124;BME280;69433;48.642;9.142;2024-01-30T10:54:04;98330.22;;;23.06;30.23
80124;BME280;69433;48.642;9.142;2024-01-30T10:56:42;98327.16;;;23.04;30.32
80124;BME280;69433;48.642;9.142;2024-01-30T10:59:15;98321.78;;;23.04;30.33
80124;BME280;69433;48.642;9.142;2024-01-30T11:01:58;98319.47;;;23.02;30.27
80124;BME280;69433;48.642;9.142;2024-01-30T11:04:40;98320.22;;;22.99;30.30
80124;BME280;69433;48.642;9.142;2024-01-30T11:07:15;98320.25;;;23.03;30.12
80124;BME280;69433;48.642;9.142;2024-01-30T11:09:51;98316.41;;;23.04;30.34
80124;BME280;69433;48.642;9.142;2024-01-30T11:12:45;98319.13;;;23.11;30.17
80124;BME280;69433;48.642;9.142;2024-01-30T11:15:15;98318.03;;;23.15;30.13
80124;BME280;69433;48.642;9.142;2024-01-30T11:20:32;98311.94;;;23.29;29.88
80124;BME280;69433;48.642;9.142;2024-01-30T11:23:12;98315.06;;;23.35;30.06
80124;BME280;69433;48.642;9.142;2024-01-30T11:25:37;98316.22;;;23.41;30.08
80124;BME280;69433;48.642;9.142;2024-01-30T11:28:04;98316.63;;;23.46;29.83
80124;BME280;69433;48.642;9.142;2024-01-30T11:30:38;98320.53;;;23.52;29.95
80124;BME280;69433;48.642;9.142;2024-01-30T11:33:12;98322.44;;;23.55;29.96
80124;BME280;69433;48.642;9.142;2024-01-30T11:35:46;98316.72;;;23.60;29.87
80124;BME280;69433;48.642;9.142;2024-01-30T11:38:14;98313.69;;;23.62;29.86
80124;BME280;69433;48.642;9.142;2024-01-30T11:41:04;98314.81;;;23.64;29.85
80124;BME280;69433;48.642;9.142;2024-01-30T11:43:30;98309.44;;;23.57;29.97
80124;BME280;69433;48.642;9.142;2024-01-30T11:46:10;98311.34;;;23.53;29.92
80124;BME280;69433;48.642;9.142;2024-01-30T11:51:46;98302.00;;;23.33;29.86
80124;BME280;69433;48.642;9.142;2024-01-30T11:54:20;98302.69;;;23.19;30.09
80124;BME280;69433;48.642;9.142;2024-01-30T11:56:51;98304.28;;;23.27;29.86
80124;BME280;69433;48.642;9.142;2024-01-30T11:59:17;98301.22;;;23.25;29.68
80124;BME280;69433;48.642;9.142;2024-01-30T12:01:44;98298.50;;;23.22;29.16
80124;BME280;69433;48.642;9.142;2024-01-30T12:04:14;98291.19;;;23.15;29.13
80124;BME280;69433;48.642;9.142;2024-01-30T12:06:50;98289.22;;;23.09;27.99
80124;BME280;69433;48.642;9.142;2024-01-30T12:09:23;98281.50;;;23.00;28.13
80124;BME280;69433;48.642;9.142;2024-01-30T12:11:48;98282.66;;;22.96;28.17
80124;BME280;69433;48.642;9.142;2024-01-30T12:14:40;98273.44;;;22.93;27.62
80124;BME280;69433;48.642;9.142;2024-01-30T12:17:08;98273.41;;;22.89;28.04
80124;BME280;69433;48.642;9.142;2024-01-30T12:19:34;98274.91;;;22.83;27.67
80124;BME280;69433;48.642;9.142;2024-01-30T12:21:59;98277.63;;;22.87;27.77
80124;BME280;69433;48.642;9.142;2024-01-30T12:24:30;98268.84;;;22.93;27.61
80124;BME280;69433;48.642;9.142;2024-01-30T12:27:07;98264.25;;;22.98;27.59
80124;BME280;69433;48.642;9.142;2024-01-30T12:29:41;98258.94;;;23.05;27.52
80124;BME280;69433;48.642;9.142;2024-01-30T12:32:08;98259.78;;;23.16;27.80
80124;BME280;69433;48.642;9.142;2024-01-30T12:34:44;98265.16;;;23.26;27.54
80124;BME280;69433;48.642;9.142;2024-01-30T12:37:13;98263.31;;;23.38;27.59
80124;BME280;69433;48.642;9.142;2024-01-30T12:39:46;98263.00;;;23.50;27.93
80124;BME280;69433;48.642;9.142;2024-01-30T12:42:11;98253.84;;;23.65;27.71
80124;BME280;69433;48.642;9.142;2024-01-30T12:44:36;98259.25;;;23.79;27.73
80124;BME280;69433;48.642;9.142;2024-01-30T12:47:11;98252.38;;;23.96;27.32
80124;BME280;69433;48.642;9.142;2024-01-30T12:49:40;98258.53;;;24.14;27.25
80124;BME280;69433;48.642;9.142;2024-01-30T12:52:05;98251.66;;;24.20;27.31
80124;BME280;69433;48.642;9.142;2024-01-30T12:54:31;98247.84;;;24.21;27.58
80124;BME280;69433;48.642;9.142;2024-01-30T12:57:09;98252.03;;;24.22;27.47
80124;BME280;69433;48.642;9.142;2024-01-30T12:59:35;98253.22;;;24.21;27.42
80124;BME280;69433;48.642;9.142;2024-01-30T13:02:18;98261.63;;;24.20;27.27
80124;BME280;69433;48.642;9.142;2024-01-30T13:04:55;98260.06;;;24.15;27.79
80124;BME280;69433;48.642;9.142;2024-01-30T13:07:23;98255.84;;;24.11;27.81
80124;BME280;69433;48.642;9.142;2024-01-30T13:13:13;98253.13;;;23.79;27.97
80124;BME280;69433;48.642;9.142;2024-01-30T13:15:38;98263.47;;;23.77;28.15
80124;BME280;69433;48.642;9.142;2024-01-30T13:18:04;98255.41;;;23.73;28.54
80124;BME280;69433;48.642;9.142;2024-01-30T13:20:32;98262.69;;;23.69;29.13
80124;BME280;69433;48.642;9.142;2024-01-30T13:22:57;98272.66;;;23.68;29.28
80124;BME280;69433;48.642;9.142;2024-01-30T13:25:31;98261.91;;;23.76;28.83